sensor_id;sensor_type;location;lat;lon;timestamp;P1;durP1;ratioP1;P2;durP2;ratioP2
58581;SDS011;44361;51.476;5.700;2022-07-01T00:00:35;26.55;;;13.00;;
58581;SDS011;44361;51.476;5.700;2022-07-01T00:03:01;22.50;;;12.88;;
58581;SDS011;44361;51.476;5.700;2022-07-01T00:05:26;29.10;;;13.63;;
58581;SDS011;44361;51.476;5.700;2022-07-01T00:07:52;24.08;;;13.52;;
58581;SDS011;44361;51.476;5.700;2022-07-01T00:10:18;24.63;;;12.07;;
58581;SDS011;44361;51.476;5.700;2022-07-01T00:12:44;22.63;;;12.40;;
58581;SDS011;44361;51.476;5.700;2022-07-01T00:15:11;22.13;;;12.18;;
58581;SDS011;44361;51.476;5.700;2022-07-01T00:17:37;21.95;;;12.13;;
58581;SDS011;44361;51.476;5.700;2022-07-01T00:20:04;22.90;;;12.23;;
58581;SDS011;44361;51.476;5.700;2022-07-01T00:22:30;24.77;;;13.55;;
58581;SDS011;44361;51.476;5.700;2022-07-01T00:24:56;26.48;;;13.98;;
58581;SDS011;44361;51.476;5.700;2022-07-01T00:27:21;24.67;;;14.48;;
58581;SDS011;44361;51.476;5.700;2022-07-01T00:29:48;27.33;;;14.15;;
58581;SDS011;44361;51.476;5.700;2022-07-01T00:32:13;27.45;;;13.68;;
58581;SDS011;44361;51.476;5.700;2022-07-01T00:34:39;27.17;;;14.13;;
58581;SDS011;44361;51.476;5.700;2022-07-01T00:37:04;25.60;;;13.63;;
58581;SDS011;44361;51.476;5.700;2022-07-01T00:39:30;28.70;;;13.77;;
58581;SDS011;44361;51.476;5.700;2022-07-01T00:42:03;24.70;;;13.38;;
58581;SDS011;44361;51.476;5.700;2022-07-01T00:44:29;26.65;;;14.02;;
58581;SDS011;44361;51.476;5.700;2022-07-01T00:46:56;25.48;;;14.18;;
58581;SDS011;44361;51.476;5.700;2022-07-01T00:49:25;28.00;;;14.05;;
58581;SDS011;44361;51.476;5.700;2022-07-01T00:51:51;24.92;;;13.98;;
58581;SDS011;44361;51.476;5.700;2022-07-01T00:54:17;26.50;;;14.02;;
58581;SDS011;44361;51.476;5.700;2022-07-01T00:56:44;24.33;;;13.60;;
58581;SDS011;44361;51.476;5.700;2022-07-01T00:59:10;29.95;;;15.35;;
58581;SDS011;44361;51.476;5.700;2022-07-01T01:01:36;28.92;;;14.82;;
58581;SDS011;44361;51.476;5.700;2022-07-01T01:04:02;26.20;;;13.65;;
58581;SDS011;44361;51.476;5.700;2022-07-01T01:06:28;22.60;;;13.32;;
58581;SDS011;44361;51.476;5.700;2022-07-01T01:08:54;33.58;;;14.05;;
58581;SDS011;44361;51.476;5.700;2022-07-01T01:11:19;26.73;;;14.65;;
58581;SDS011;44361;51.476;5.700;2022-07-01T01:13:45;26.65;;;14.15;;
58581;SDS011;44361;51.476;5.700;2022-07-01T01:16:21;27.10;;;14.65;;
58581;SDS011;44361;51.476;5.700;2022-07-01T01:18:47;27.33;;;13.43;;
58581;SDS011;44361;51.476;5.700;2022-07-01T01:21:13;28.40;;;14.65;;
58581;SDS011;44361;51.476;5.700;2022-07-01T01:23:39;32.25;;;14.75;;
58581;SDS011;44361;51.476;5.700;2022-07-01T01:26:24;33.78;;;14.73;;
58581;SDS011;44361;51.476;5.700;2022-07-01T01:28:50;30.35;;;14.40;;
58581;SDS011;44361;51.476;5.700;2022-07-01T01:31:16;32.88;;;14.18;;
58581;SDS011;44361;51.476;5.700;2022-07-01T01:33:42;32.05;;;14.52;;
58581;SDS011;44361;51.476;5.700;2022-07-01T01:36:08;34.72;;;14.93;;
58581;SDS011;44361;51.476;5.700;2022-07-01T01:38:34;31.30;;;14.23;;
58581;SDS011;44361;51.476;5.700;2022-07-01T01:41:04;32.97;;;15.30;;
58581;SDS011;44361;51.476;5.700;2022-07-01T01:43:30;28.60;;;13.25;;
58581;SDS011;44361;51.476;5.700;2022-07-01T01:45:59;32.13;;;14.32;;
58581;SDS011;44361;51.476;5.700;2022-07-01T01:48:26;36.90;;;16.67;;
58581;SDS011;44361;51.476;5.700;2022-07-01T01:50:52;31.00;;;15.38;;
58581;SDS011;44361;51.476;5.700;2022-07-01T01:53:18;42.95;;;16.25;;
58581;SDS011;44361;51.476;5.700;2022-07-01T01:55:43;38.42;;;16.50;;
58581;SDS011;44361;51.476;5.700;2022-07-01T01:58:09;30.92;;;15.57;;
58581;SDS011;44361;51.476;5.700;2022-07-01T02:00:34;34.53;;;16.38;;
58581;SDS011;44361;51.476;5.700;2022-07-01T02:03:00;34.67;;;15.80;;
58581;SDS011;44361;51.476;5.700;2022-07-01T02:05:25;37.42;;;17.20;;
58581;SDS011;44361;51.476;5.700;2022-07-01T02:07:51;40.22;;;17.08;;
58581;SDS011;44361;51.476;5.700;2022-07-01T02:10:17;38.03;;;15.82;;
58581;SDS011;44361;51.476;5.700;2022-07-01T02:12:43;36.85;;;17.10;;
58581;SDS011;44361;51.476;5.700;2022-07-01T02:15:08;35.65;;;17.35;;
58581;SDS011;44361;51.476;5.700;2022-07-01T02:17:34;30.92;;;16.17;;
58581;SDS011;44361;51.476;5.700;2022-07-01T02:20:00;35.75;;;17.27;;
58581;SDS011;44361;51.476;5.700;2022-07-01T02:22:25;37.30;;;17.92;;
58581;SDS011;44361;51.476;5.700;2022-07-01T02:24:51;33.83;;;16.80;;
58581;SDS011;44361;51.476;5.700;2022-07-01T02:27:16;36.15;;;17.25;;
58581;SDS011;44361;51.476;5.700;2022-07-01T02:29:42;32.35;;;17.80;;
58581;SDS011;44361;51.476;5.700;2022-07-01T02:32:07;40.88;;;17.38;;
58581;SDS011;44361;51.476;5.700;2022-07-01T02:34:33;33.67;;;17.13;;
58581;SDS011;44361;51.476;5.700;2022-07-01T02:36:59;37.50;;;17.10;;
58581;SDS011;44361;51.476;5.700;2022-07-01T02:39:24;36.33;;;17.85;;
58581;SDS011;44361;51.476;5.700;2022-07-01T02:41:50;35.13;;;18.13;;
58581;SDS011;44361;51.476;5.700;2022-07-01T02:44:34;35.80;;;17.00;;
58581;SDS011;44361;51.476;5.700;2022-07-01T02:47:00;31.20;;;16.98;;
58581;SDS011;44361;51.476;5.700;2022-07-01T02:49:25;33.47;;;17.27;;
58581;SDS011;44361;51.476;5.700;2022-07-01T02:51:51;36.80;;;16.70;;
58581;SDS011;44361;51.476;5.700;2022-07-01T02:54:16;34.30;;;17.20;;
58581;SDS011;44361;51.476;5.700;2022-07-01T02:56:42;28.65;;;15.82;;
58581;SDS011;44361;51.476;5.700;2022-07-01T02:59:08;33.83;;;16.90;;
58581;SDS011;44361;51.476;5.700;2022-07-01T03:01:33;33.80;;;17.83;;
58581;SDS011;44361;51.476;5.700;2022-07-01T03:07:20;33.22;;;17.15;;
58581;SDS011;44361;51.476;5.700;2022-07-01T03:09:46;31.83;;;16.70;;
58581;SDS011;44361;51.476;5.700;2022-07-01T03:12:12;31.27;;;17.30;;
58581;SDS011;44361;51.476;5.700;2022-07-01T03:14:51;33.80;;;17.80;;
58581;SDS011;44361;51.476;5.700;2022-07-01T03:17:18;32.72;;;16.92;;
58581;SDS011;44361;51.476;5.700;2022-07-01T03:19:44;41.67;;;17.50;;
58581;SDS011;44361;51.476;5.700;2022-07-01T03:22:10;35.92;;;17.77;;
58581;SDS011;44361;51.476;5.700;2022-07-01T03:24:36;37.05;;;16.65;;
58581;SDS011;44361;51.476;5.700;2022-07-01T03:27:02;36.20;;;18.05;;
58581;SDS011;44361;51.476;5.700;2022-07-01T03:29:28;28.73;;;16.52;;
58581;SDS011;44361;51.476;5.700;2022-07-01T03:31:53;31.75;;;16.15;;
58581;SDS011;44361;51.476;5.700;2022-07-01T03:34:19;31.83;;;15.85;;
58581;SDS011;44361;51.476;5.700;2022-07-01T03:36:44;30.67;;;16.20;;
58581;SDS011;44361;51.476;5.700;2022-07-01T03:39:10;30.90;;;16.45;;
58581;SDS011;44361;51.476;5.700;2022-07-01T03:41:35;25.60;;;14.68;;
58581;SDS011;44361;51.476;5.700;2022-07-01T03:44:01;30.30;;;15.65;;
58581;SDS011;44361;51.476;5.700;2022-07-01T03:46:26;25.40;;;14.43;;
58581;SDS011;44361;51.476;5.700;2022-07-01T03:48:56;29.67;;;15.45;;
58581;SDS011;44361;51.476;5.700;2022-07-01T03:51:22;28.48;;;15.60;;
58581;SDS011;44361;51.476;5.700;2022-07-01T03:53:47;29.85;;;15.13;;
58581;SDS011;44361;51.476;5.700;2022-07-01T03:56:31;32.92;;;15.93;;
58581;SDS011;44361;51.476;5.700;2022-07-01T03:58:57;29.90;;;15.90;;
58581;SDS011;44361;51.476;5.700;2022-07-01T04:01:22;24.48;;;15.27;;
58581;SDS011;44361;51.476;5.700;2022-07-01T04:03:48;29.95;;;15.05;;
58581;SDS011;44361;51.476;5.700;2022-07-01T04:06:13;33.50;;;14.70;;
58581;SDS011;44361;51.476;5.700;2022-07-01T04:08:39;28.33;;;15.38;;
58581;SDS011;44361;51.476;5.700;2022-07-01T04:11:05;22.70;;;13.50;;
58581;SDS011;44361;51.476;5.700;2022-07-01T04:13:33;27.23;;;14.15;;
58581;SDS011;44361;51.476;5.700;2022-07-01T04:15:59;29.80;;;13.60;;
58581;SDS011;44361;51.476;5.700;2022-07-01T04:18:25;26.33;;;15.18;;
58581;SDS011;44361;51.476;5.700;2022-07-01T04:20:52;26.05;;;14.82;;
58581;SDS011;44361;51.476;5.700;2022-07-01T04:23:36;23.93;;;14.23;;
58581;SDS011;44361;51.476;5.700;2022-07-01T04:26:02;27.70;;;14.13;;
58581;SDS011;44361;51.476;5.700;2022-07-01T04:28:28;29.80;;;15.55;;
58581;SDS011;44361;51.476;5.700;2022-07-01T04:30:53;31.60;;;17.40;;
58581;SDS011;44361;51.476;5.700;2022-07-01T04:33:19;34.28;;;17.70;;
58581;SDS011;44361;51.476;5.700;2022-07-01T04:35:44;32.95;;;18.33;;
58581;SDS011;44361;51.476;5.700;2022-07-01T04:38:10;30.20;;;16.13;;
58581;SDS011;44361;51.476;5.700;2022-07-01T04:40:36;29.42;;;17.40;;
58581;SDS011;44361;51.476;5.700;2022-07-01T04:43:01;28.27;;;16.35;;
58581;SDS011;44361;51.476;5.700;2022-07-01T04:45:27;30.02;;;16.00;;
58581;SDS011;44361;51.476;5.700;2022-07-01T04:47:52;30.67;;;16.02;;
58581;SDS011;44361;51.476;5.700;2022-07-01T04:50:18;27.70;;;16.08;;
58581;SDS011;44361;51.476;5.700;2022-07-01T04:52:43;26.45;;;16.10;;
58581;SDS011;44361;51.476;5.700;2022-07-01T04:55:09;25.75;;;15.13;;
58581;SDS011;44361;51.476;5.700;2022-07-01T04:57:34;26.67;;;15.52;;
58581;SDS011;44361;51.476;5.700;2022-07-01T05:00:00;23.25;;;15.27;;
58581;SDS011;44361;51.476;5.700;2022-07-01T05:02:26;26.02;;;14.18;;
58581;SDS011;44361;51.476;5.700;2022-07-01T05:04:51;23.20;;;13.30;;
58581;SDS011;44361;51.476;5.700;2022-07-01T05:07:17;22.00;;;13.10;;
58581;SDS011;44361;51.476;5.700;2022-07-01T05:09:55;27.75;;;13.15;;
58581;SDS011;44361;51.476;5.700;2022-07-01T05:12:21;21.58;;;11.65;;
58581;SDS011;44361;51.476;5.700;2022-07-01T05:14:47;19.60;;;11.80;;
58581;SDS011;44361;51.476;5.700;2022-07-01T05:17:12;20.95;;;11.75;;
58581;SDS011;44361;51.476;5.700;2022-07-01T05:19:38;26.75;;;12.27;;
58581;SDS011;44361;51.476;5.700;2022-07-01T05:22:22;17.80;;;11.13;;
58581;SDS011;44361;51.476;5.700;2022-07-01T05:24:48;22.60;;;11.40;;
58581;SDS011;44361;51.476;5.700;2022-07-01T05:27:13;21.38;;;11.70;;
58581;SDS011;44361;51.476;5.700;2022-07-01T05:29:39;19.95;;;10.85;;
58581;SDS011;44361;51.476;5.700;2022-07-01T05:32:05;18.52;;;10.48;;
58581;SDS011;44361;51.476;5.700;2022-07-01T05:34:30;18.52;;;10.77;;
58581;SDS011;44361;51.476;5.700;2022-07-01T05:36:56;22.42;;;11.05;;
58581;SDS011;44361;51.476;5.700;2022-07-01T05:39:22;22.85;;;10.55;;
58581;SDS011;44361;51.476;5.700;2022-07-01T05:41:48;16.30;;;10.23;;
58581;SDS011;44361;51.476;5.700;2022-07-01T05:44:13;14.77;;;9.88;;
58581;SDS011;44361;51.476;5.700;2022-07-01T05:46:39;16.27;;;9.77;;
58581;SDS011;44361;51.476;5.700;2022-07-01T05:49:05;16.70;;;9.02;;
58581;SDS011;44361;51.476;5.700;2022-07-01T05:51:31;18.95;;;9.20;;
58581;SDS011;44361;51.476;5.700;2022-07-01T05:53:56;13.15;;;8.23;;
58581;SDS011;44361;51.476;5.700;2022-07-01T05:56:22;15.32;;;9.73;;
58581;SDS011;44361;51.476;5.700;2022-07-01T05:58:48;18.27;;;9.55;;
58581;SDS011;44361;51.476;5.700;2022-07-01T06:01:14;17.00;;;9.73;;
58581;SDS011;44361;51.476;5.700;2022-07-01T06:03:40;13.63;;;9.38;;
58581;SDS011;44361;51.476;5.700;2022-07-01T06:06:05;15.05;;;8.93;;
58581;SDS011;44361;51.476;5.700;2022-07-01T06:08:32;13.68;;;7.45;;
58581;SDS011;44361;51.476;5.700;2022-07-01T06:10:58;13.45;;;7.43;;
58581;SDS011;44361;51.476;5.700;2022-07-01T06:13:24;10.93;;;7.07;;
58581;SDS011;44361;51.476;5.700;2022-07-01T06:15:49;14.77;;;8.40;;
58581;SDS011;44361;51.476;5.700;2022-07-01T06:18:15;14.65;;;7.95;;
58581;SDS011;44361;51.476;5.700;2022-07-01T06:20:40;14.40;;;8.00;;
58581;SDS011;44361;51.476;5.700;2022-07-01T06:23:06;13.77;;;8.13;;
58581;SDS011;44361;51.476;5.700;2022-07-01T06:25:31;12.25;;;7.72;;
58581;SDS011;44361;51.476;5.700;2022-07-01T06:27:57;12.88;;;6.50;;
58581;SDS011;44361;51.476;5.700;2022-07-01T06:30:22;15.25;;;6.18;;
58581;SDS011;44361;51.476;5.700;2022-07-01T06:32:48;13.00;;;6.10;;
58581;SDS011;44361;51.476;5.700;2022-07-01T06:35:13;11.13;;;5.80;;
58581;SDS011;44361;51.476;5.700;2022-07-01T06:37:39;8.95;;;4.90;;
58581;SDS011;44361;51.476;5.700;2022-07-01T06:40:06;9.65;;;4.90;;
58581;SDS011;44361;51.476;5.700;2022-07-01T06:42:32;11.00;;;5.20;;
58581;SDS011;44361;51.476;5.700;2022-07-01T06:44:59;10.68;;;5.55;;
58581;SDS011;44361;51.476;5.700;2022-07-01T06:47:24;9.30;;;4.80;;
58581;SDS011;44361;51.476;5.700;2022-07-01T06:49:50;9.48;;;4.95;;
58581;SDS011;44361;51.476;5.700;2022-07-01T06:52:16;9.02;;;4.40;;
58581;SDS011;44361;51.476;5.700;2022-07-01T06:54:41;8.57;;;4.50;;
58581;SDS011;44361;51.476;5.700;2022-07-01T06:57:07;9.30;;;4.03;;
58581;SDS011;44361;51.476;5.700;2022-07-01T06:59:33;6.40;;;3.63;;
58581;SDS011;44361;51.476;5.700;2022-07-01T07:01:58;7.55;;;3.50;;
58581;SDS011;44361;51.476;5.700;2022-07-01T07:04:24;5.55;;;3.38;;
58581;SDS011;44361;51.476;5.700;2022-07-01T07:06:50;5.97;;;3.30;;
58581;SDS011;44361;51.476;5.700;2022-07-01T07:09:16;7.32;;;2.80;;
58581;SDS011;44361;51.476;5.700;2022-07-01T07:11:41;8.00;;;3.20;;
58581;SDS011;44361;51.476;5.700;2022-07-01T07:14:07;6.65;;;2.50;;
58581;SDS011;44361;51.476;5.700;2022-07-01T07:16:32;8.40;;;3.05;;
58581;SDS011;44361;51.476;5.700;2022-07-01T07:18:58;5.10;;;2.70;;
58581;SDS011;44361;51.476;5.700;2022-07-01T07:21:24;5.80;;;3.08;;
58581;SDS011;44361;51.476;5.700;2022-07-01T07:23:50;3.78;;;1.90;;
58581;SDS011;44361;51.476;5.700;2022-07-01T07:26:16;7.55;;;2.00;;
58581;SDS011;44361;51.476;5.700;2022-07-01T07:28:41;5.75;;;1.77;;
58581;SDS011;44361;51.476;5.700;2022-07-01T07:31:07;5.43;;;1.65;;
58581;SDS011;44361;51.476;5.700;2022-07-01T07:33:32;5.90;;;1.50;;
58581;SDS011;44361;51.476;5.700;2022-07-01T07:35:58;5.05;;;1.65;;
58581;SDS011;44361;51.476;5.700;2022-07-01T07:38:24;5.25;;;1.77;;
58581;SDS011;44361;51.476;5.700;2022-07-01T07:40:49;2.55;;;1.13;;
58581;SDS011;44361;51.476;5.700;2022-07-01T07:43:15;3.78;;;1.60;;
58581;SDS011;44361;51.476;5.700;2022-07-01T07:45:40;2.65;;;1.40;;
58581;SDS011;44361;51.476;5.700;2022-07-01T07:48:06;7.30;;;1.58;;
58581;SDS011;44361;51.476;5.700;2022-07-01T07:50:34;5.85;;;1.38;;
58581;SDS011;44361;51.476;5.700;2022-07-01T07:52:59;4.40;;;1.73;;
58581;SDS011;44361;51.476;5.700;2022-07-01T07:55:25;4.10;;;1.55;;
58581;SDS011;44361;51.476;5.700;2022-07-01T07:57:50;8.13;;;1.75;;
58581;SDS011;44361;51.476;5.700;2022-07-01T08:00:16;5.30;;;1.85;;
58581;SDS011;44361;51.476;5.700;2022-07-01T08:02:42;4.78;;;1.63;;
58581;SDS011;44361;51.476;5.700;2022-07-01T08:05:08;3.78;;;1.75;;
58581;SDS011;44361;51.476;5.700;2022-07-01T08:07:35;4.43;;;1.92;;
58581;SDS011;44361;51.476;5.700;2022-07-01T08:10:06;4.60;;;1.52;;
58581;SDS011;44361;51.476;5.700;2022-07-01T08:12:33;6.00;;;1.48;;
58581;SDS011;44361;51.476;5.700;2022-07-01T08:14:59;5.55;;;1.95;;
58581;SDS011;44361;51.476;5.700;2022-07-01T08:17:25;4.85;;;1.55;;
58581;SDS011;44361;51.476;5.700;2022-07-01T08:19:51;3.53;;;0.85;;
58581;SDS011;44361;51.476;5.700;2022-07-01T08:22:17;4.60;;;1.05;;
58581;SDS011;44361;51.476;5.700;2022-07-01T08:24:43;2.63;;;0.80;;
58581;SDS011;44361;51.476;5.700;2022-07-01T08:27:08;5.38;;;1.17;;
58581;SDS011;44361;51.476;5.700;2022-07-01T08:29:34;5.55;;;1.20;;
58581;SDS011;44361;51.476;5.700;2022-07-01T08:31:59;1.77;;;0.90;;
58581;SDS011;44361;51.476;5.700;2022-07-01T08:34:25;3.25;;;1.10;;
58581;SDS011;44361;51.476;5.700;2022-07-01T08:36:51;2.67;;;1.02;;
58581;SDS011;44361;51.476;5.700;2022-07-01T08:39:16;2.40;;;0.77;;
58581;SDS011;44361;51.476;5.700;2022-07-01T08:41:42;2.47;;;0.70;;
58581;SDS011;44361;51.476;5.700;2022-07-01T08:44:08;4.90;;;0.85;;
58581;SDS011;44361;51.476;5.700;2022-07-01T08:46:34;2.50;;;0.88;;
58581;SDS011;44361;51.476;5.700;2022-07-01T08:49:00;1.63;;;0.63;;
58581;SDS011;44361;51.476;5.700;2022-07-01T08:51:26;5.40;;;0.88;;
58581;SDS011;44361;51.476;5.700;2022-07-01T08:53:51;3.45;;;0.93;;
58581;SDS011;44361;51.476;5.700;2022-07-01T08:56:17;3.08;;;0.57;;
58581;SDS011;44361;51.476;5.700;2022-07-01T08:59:01;4.47;;;0.60;;
58581;SDS011;44361;51.476;5.700;2022-07-01T09:01:27;4.00;;;0.80;;
58581;SDS011;44361;51.476;5.700;2022-07-01T09:03:54;1.75;;;0.52;;
58581;SDS011;44361;51.476;5.700;2022-07-01T09:06:22;1.15;;;0.35;;
58581;SDS011;44361;51.476;5.700;2022-07-01T09:08:52;4.55;;;0.68;;
58581;SDS011;44361;51.476;5.700;2022-07-01T09:13:44;3.20;;;0.80;;
58581;SDS011;44361;51.476;5.700;2022-07-01T09:16:14;1.38;;;0.40;;
58581;SDS011;44361;51.476;5.700;2022-07-01T09:19:02;3.05;;;0.55;;
58581;SDS011;44361;51.476;5.700;2022-07-01T09:21:31;2.17;;;0.43;;
58581;SDS011;44361;51.476;5.700;2022-07-01T09:23:58;2.70;;;0.52;;
58581;SDS011;44361;51.476;5.700;2022-07-01T09:26:26;1.48;;;0.50;;
58581;SDS011;44361;51.476;5.700;2022-07-01T09:28:56;1.73;;;0.70;;
58581;SDS011;44361;51.476;5.700;2022-07-01T09:31:23;1.63;;;0.60;;
58581;SDS011;44361;51.476;5.700;2022-07-01T09:34:06;3.08;;;0.65;;
58581;SDS011;44361;51.476;5.700;2022-07-01T09:36:37;4.50;;;0.82;;
58581;SDS011;44361;51.476;5.700;2022-07-01T09:39:05;4.18;;;0.65;;
58581;SDS011;44361;51.476;5.700;2022-07-01T09:41:37;3.85;;;0.60;;
58581;SDS011;44361;51.476;5.700;2022-07-01T09:44:03;2.50;;;0.68;;
58581;SDS011;44361;51.476;5.700;2022-07-01T09:46:30;1.35;;;0.40;;
58581;SDS011;44361;51.476;5.700;2022-07-01T09:48:56;3.17;;;0.90;;
58581;SDS011;44361;51.476;5.700;2022-07-01T09:51:21;3.40;;;0.47;;
58581;SDS011;44361;51.476;5.700;2022-07-01T09:53:47;1.13;;;0.40;;
58581;SDS011;44361;51.476;5.700;2022-07-01T09:56:12;3.85;;;0.60;;
58581;SDS011;44361;51.476;5.700;2022-07-01T09:58:38;3.00;;;0.52;;
58581;SDS011;44361;51.476;5.700;2022-07-01T10:01:04;3.10;;;0.60;;
58581;SDS011;44361;51.476;5.700;2022-07-01T10:03:32;3.00;;;0.50;;
58581;SDS011;44361;51.476;5.700;2022-07-01T10:08:58;3.50;;;0.40;;
58581;SDS011;44361;51.476;5.700;2022-07-01T10:14:08;2.30;;;0.50;;
58581;SDS011;44361;51.476;5.700;2022-07-01T10:16:36;3.42;;;0.65;;
58581;SDS011;44361;51.476;5.700;2022-07-01T10:21:52;2.50;;;0.50;;
58581;SDS011;44361;51.476;5.700;2022-07-01T10:24:22;3.28;;;0.60;;
58581;SDS011;44361;51.476;5.700;2022-07-01T10:26:49;1.55;;;0.40;;
58581;SDS011;44361;51.476;5.700;2022-07-01T10:34:48;2.08;;;0.40;;
58581;SDS011;44361;51.476;5.700;2022-07-01T10:37:14;6.32;;;0.80;;
58581;SDS011;44361;51.476;5.700;2022-07-01T10:40:01;2.80;;;0.88;;
58581;SDS011;44361;51.476;5.700;2022-07-01T10:42:31;2.22;;;0.40;;
58581;SDS011;44361;51.476;5.700;2022-07-01T10:44:59;3.80;;;0.45;;
58581;SDS011;44361;51.476;5.700;2022-07-01T10:47:25;2.72;;;0.88;;
58581;SDS011;44361;51.476;5.700;2022-07-01T10:49:55;2.42;;;0.57;;
58581;SDS011;44361;51.476;5.700;2022-07-01T10:52:22;2.45;;;0.80;;
58581;SDS011;44361;51.476;5.700;2022-07-01T10:54:50;1.60;;;0.40;;
58581;SDS011;44361;51.476;5.700;2022-07-01T10:59:44;2.83;;;0.60;;
58581;SDS011;44361;51.476;5.700;2022-07-01T11:02:17;2.85;;;0.50;;
58581;SDS011;44361;51.476;5.700;2022-07-01T11:04:44;6.50;;;0.60;;
58581;SDS011;44361;51.476;5.700;2022-07-01T11:07:10;3.15;;;0.75;;
58581;SDS011;44361;51.476;5.700;2022-07-01T11:09:36;1.70;;;0.55;;
58581;SDS011;44361;51.476;5.700;2022-07-01T11:12:02;3.60;;;0.60;;
58581;SDS011;44361;51.476;5.700;2022-07-01T11:14:31;2.85;;;0.30;;
58581;SDS011;44361;51.476;5.700;2022-07-01T11:16:59;1.77;;;0.50;;
58581;SDS011;44361;51.476;5.700;2022-07-01T11:19:26;4.25;;;0.68;;
58581;SDS011;44361;51.476;5.700;2022-07-01T11:21:52;2.53;;;0.40;;
58581;SDS011;44361;51.476;5.700;2022-07-01T11:24:18;1.52;;;0.40;;
58581;SDS011;44361;51.476;5.700;2022-07-01T11:26:44;1.65;;;0.28;;
58581;SDS011;44361;51.476;5.700;2022-07-01T11:29:12;4.20;;;1.05;;
58581;SDS011;44361;51.476;5.700;2022-07-01T11:31:39;3.80;;;0.35;;
58581;SDS011;44361;51.476;5.700;2022-07-01T11:34:05;2.38;;;0.40;;
58581;SDS011;44361;51.476;5.700;2022-07-01T11:36:32;3.67;;;0.35;;
58581;SDS011;44361;51.476;5.700;2022-07-01T11:41:55;1.42;;;0.40;;
58581;SDS011;44361;51.476;5.700;2022-07-01T11:44:55;1.35;;;0.25;;
58581;SDS011;44361;51.476;5.700;2022-07-01T11:47:24;3.13;;;0.57;;
58581;SDS011;44361;51.476;5.700;2022-07-01T11:49:50;4.93;;;0.55;;
58581;SDS011;44361;51.476;5.700;2022-07-01T11:52:16;7.13;;;0.52;;
58581;SDS011;44361;51.476;5.700;2022-07-01T11:54:44;2.58;;;0.40;;
58581;SDS011;44361;51.476;5.700;2022-07-01T11:57:29;2.85;;;0.47;;
58581;SDS011;44361;51.476;5.700;2022-07-01T11:59:56;1.20;;;0.30;;
58581;SDS011;44361;51.476;5.700;2022-07-01T12:02:22;1.35;;;0.30;;
58581;SDS011;44361;51.476;5.700;2022-07-01T12:04:49;2.00;;;0.70;;
58581;SDS011;44361;51.476;5.700;2022-07-01T12:07:16;1.55;;;0.30;;
58581;SDS011;44361;51.476;5.700;2022-07-01T12:09:48;1.85;;;0.40;;
58581;SDS011;44361;51.476;5.700;2022-07-01T12:12:17;4.43;;;0.65;;
58581;SDS011;44361;51.476;5.700;2022-07-01T12:14:57;2.40;;;0.63;;
58581;SDS011;44361;51.476;5.700;2022-07-01T12:17:24;2.35;;;0.65;;
58581;SDS011;44361;51.476;5.700;2022-07-01T12:19:52;5.13;;;0.68;;
58581;SDS011;44361;51.476;5.700;2022-07-01T12:22:22;1.83;;;0.40;;
58581;SDS011;44361;51.476;5.700;2022-07-01T12:24:49;3.45;;;0.45;;
58581;SDS011;44361;51.476;5.700;2022-07-01T12:27:15;2.33;;;0.40;;
58581;SDS011;44361;51.476;5.700;2022-07-01T12:29:48;1.35;;;0.35;;
58581;SDS011;44361;51.476;5.700;2022-07-01T12:32:24;2.65;;;0.32;;
58581;SDS011;44361;51.476;5.700;2022-07-01T12:37:31;1.70;;;0.30;;
58581;SDS011;44361;51.476;5.700;2022-07-01T12:42:29;2.25;;;0.40;;
58581;SDS011;44361;51.476;5.700;2022-07-01T12:45:16;3.45;;;0.60;;
58581;SDS011;44361;51.476;5.700;2022-07-01T12:47:51;11.60;;;0.80;;
58581;SDS011;44361;51.476;5.700;2022-07-01T12:50:19;7.10;;;0.57;;
58581;SDS011;44361;51.476;5.700;2022-07-01T12:53:01;3.63;;;1.00;;
58581;SDS011;44361;51.476;5.700;2022-07-01T12:55:32;4.53;;;0.47;;
58581;SDS011;44361;51.476;5.700;2022-07-01T12:58:00;4.97;;;0.63;;
58581;SDS011;44361;51.476;5.700;2022-07-01T13:00:27;5.63;;;1.08;;
58581;SDS011;44361;51.476;5.700;2022-07-01T13:02:55;3.08;;;0.60;;
58581;SDS011;44361;51.476;5.700;2022-07-01T13:05:22;2.17;;;0.50;;
58581;SDS011;44361;51.476;5.700;2022-07-01T13:07:48;2.72;;;0.73;;
58581;SDS011;44361;51.476;5.700;2022-07-01T13:10:15;4.00;;;0.60;;
58581;SDS011;44361;51.476;5.700;2022-07-01T13:12:42;3.17;;;0.50;;
58581;SDS011;44361;51.476;5.700;2022-07-01T13:15:09;3.50;;;0.50;;
58581;SDS011;44361;51.476;5.700;2022-07-01T13:17:36;3.13;;;0.35;;
58581;SDS011;44361;51.476;5.700;2022-07-01T13:20:02;4.03;;;0.60;;
58581;SDS011;44361;51.476;5.700;2022-07-01T13:22:28;1.90;;;0.40;;
58581;SDS011;44361;51.476;5.700;2022-07-01T13:24:53;3.38;;;0.52;;
58581;SDS011;44361;51.476;5.700;2022-07-01T13:27:19;5.75;;;0.68;;
58581;SDS011;44361;51.476;5.700;2022-07-01T13:29:45;0.85;;;0.35;;
58581;SDS011;44361;51.476;5.700;2022-07-01T13:32:11;2.13;;;0.40;;
58581;SDS011;44361;51.476;5.700;2022-07-01T13:34:36;3.55;;;0.60;;
58581;SDS011;44361;51.476;5.700;2022-07-01T13:37:02;2.35;;;0.52;;
58581;SDS011;44361;51.476;5.700;2022-07-01T13:39:28;1.33;;;0.38;;
58581;SDS011;44361;51.476;5.700;2022-07-01T13:41:53;2.15;;;0.65;;
58581;SDS011;44361;51.476;5.700;2022-07-01T13:44:21;2.50;;;0.73;;
58581;SDS011;44361;51.476;5.700;2022-07-01T13:46:47;7.15;;;0.73;;
58581;SDS011;44361;51.476;5.700;2022-07-01T13:49:13;5.25;;;0.70;;
58581;SDS011;44361;51.476;5.700;2022-07-01T13:51:38;2.35;;;0.60;;
58581;SDS011;44361;51.476;5.700;2022-07-01T13:54:04;6.35;;;1.30;;
58581;SDS011;44361;51.476;5.700;2022-07-01T13:56:29;2.38;;;0.77;;
58581;SDS011;44361;51.476;5.700;2022-07-01T13:58:55;4.82;;;0.77;;
58581;SDS011;44361;51.476;5.700;2022-07-01T14:01:21;2.35;;;0.50;;
58581;SDS011;44361;51.476;5.700;2022-07-01T14:03:51;1.45;;;0.73;;
58581;SDS011;44361;51.476;5.700;2022-07-01T14:06:17;2.13;;;0.60;;
58581;SDS011;44361;51.476;5.700;2022-07-01T14:08:43;1.00;;;0.40;;
58581;SDS011;44361;51.476;5.700;2022-07-01T14:11:10;1.45;;;0.70;;
58581;SDS011;44361;51.476;5.700;2022-07-01T14:13:36;3.35;;;0.70;;
58581;SDS011;44361;51.476;5.700;2022-07-01T14:16:02;1.83;;;0.60;;
58581;SDS011;44361;51.476;5.700;2022-07-01T14:18:29;4.45;;;1.08;;
58581;SDS011;44361;51.476;5.700;2022-07-01T14:20:54;2.38;;;0.80;;
58581;SDS011;44361;51.476;5.700;2022-07-01T14:23:20;1.50;;;0.60;;
58581;SDS011;44361;51.476;5.700;2022-07-01T14:25:46;2.90;;;0.80;;
58581;SDS011;44361;51.476;5.700;2022-07-01T14:28:12;1.80;;;0.80;;
58581;SDS011;44361;51.476;5.700;2022-07-01T14:30:37;3.70;;;0.70;;
58581;SDS011;44361;51.476;5.700;2022-07-01T14:33:03;3.50;;;0.50;;
58581;SDS011;44361;51.476;5.700;2022-07-01T14:35:29;4.80;;;0.90;;
58581;SDS011;44361;51.476;5.700;2022-07-01T14:37:55;4.93;;;1.60;;
58581;SDS011;44361;51.476;5.700;2022-07-01T14:40:20;2.13;;;0.70;;
58581;SDS011;44361;51.476;5.700;2022-07-01T14:42:46;3.88;;;0.70;;
58581;SDS011;44361;51.476;5.700;2022-07-01T14:45:12;6.07;;;0.80;;
58581;SDS011;44361;51.476;5.700;2022-07-01T14:47:42;2.58;;;0.75;;
58581;SDS011;44361;51.476;5.700;2022-07-01T14:50:08;3.60;;;0.73;;
58581;SDS011;44361;51.476;5.700;2022-07-01T14:52:34;1.58;;;0.50;;
58581;SDS011;44361;51.476;5.700;2022-07-01T14:55:00;7.60;;;0.90;;
58581;SDS011;44361;51.476;5.700;2022-07-01T14:57:26;2.40;;;0.57;;
58581;SDS011;44361;51.476;5.700;2022-07-01T14:59:51;2.45;;;0.70;;
58581;SDS011;44361;51.476;5.700;2022-07-01T15:02:17;2.65;;;0.60;;
58581;SDS011;44361;51.476;5.700;2022-07-01T15:04:44;1.40;;;0.50;;